Time;durP1;ratioP1;P1;durP2;ratioP2;P2;SDS_P1;SDS_P2;PMS_P1;PMS_P2;Temp;Humidity;BMP_temperature;BMP_pressure;BME280_temperature;BME280_humidity;BME280_pressure;Samples;Min_cycle;Max_cycle;Signal;HPM_P1;HPM_P2
2022/05/14 00:57:36;;;;;;;14.55;8.73;;;;;;;;;;6180999;23;20211;-91
2022/05/14 01:00:41;;;;;;;15.48;7.32;;;;;;;;;;6233385;23;20159;-92
2022/05/14 01:03:49;;;;;;;17.15;8.27;;;;;;;;;;6207275;23;20206;-91
2022/05/14 01:06:57;;;;;;;14.02;7.45;;;;;;;;;;6233307;23;20171;-92
2022/05/14 01:10:04;;;;;;;13.63;6.60;;;;;;;;;;6232100;23;20615;-91
2022/05/14 01:13:11;;;;;;;15.18;6.75;;;;;;;;;;6213633;23;20198;-91
2022/05/14 01:16:17;;;;;;;17.73;7.25;;;;;;;;;;6214760;23;20220;-91
2022/05/14 01:19:23;;;;;;;12.13;6.82;;;;;;;;;;6233523;23;20320;-90
2022/05/14 01:22:39;;;;;;;19.38;7.40;;;;;;;;;;6233457;23;20171;-91
2022/05/14 01:29:31;;;;;;;14.27;7.65;;;;;;;;;;6234631;23;20645;-91
2022/05/14 01:32:42;;;;;;;19.92;8.00;;;;;;;;;;6215824;23;20203;-90
2022/05/14 01:35:50;;;;;;;15.82;8.00;;;;;;;;;;6216705;23;20163;-91
2022/05/14 01:38:57;;;;;;;19.65;7.93;;;;;;;;;;6232559;23;20519;-90
2022/05/14 01:42:05;;;;;;;16.27;7.93;;;;;;;;;;6214471;23;20187;-90
2022/05/14 01:45:12;;;;;;;17.63;7.65;;;;;;;;;;6233090;23;20187;-90
2022/05/14 01:48:22;;;;;;;18.60;7.50;;;;;;;;;;6232157;23;20170;-90
2022/05/14 01:51:28;;;;;;;15.93;7.72;;;;;;;;;;6232446;23;20195;-92
2022/05/14 01:54:33;;;;;;;18.30;8.40;;;;;;;;;;6232244;23;20163;-91
2022/05/14 01:57:41;;;;;;;16.30;8.00;;;;;;;;;;6233564;23;20174;-90
2022/05/14 02:00:47;;;;;;;20.08;7.93;;;;;;;;;;6233554;23;20211;-91
2022/05/14 02:03:54;;;;;;;20.13;8.40;;;;;;;;;;6232800;23;20219;-90
2022/05/14 02:07:00;;;;;;;15.38;7.88;;;;;;;;;;6217412;23;20167;-91
2022/05/14 02:10:05;;;;;;;16.38;8.55;;;;;;;;;;6234208;23;20263;-91
2022/05/14 02:13:12;;;;;;;16.65;8.75;;;;;;;;;;6215119;23;20163;-92
2022/05/14 02:16:19;;;;;;;14.77;9.02;;;;;;;;;;6233839;23;20155;-92
2022/05/14 02:19:24;;;;;;;18.27;9.05;;;;;;;;;;6214234;23;20163;-92
2022/05/14 02:22:30;;;;;;;16.95;8.63;;;;;;;;;;6214823;23;20154;-92
2022/05/14 02:25:35;;;;;;;15.07;7.78;;;;;;;;;;6217020;23;20202;-92
2022/05/14 02:28:42;;;;;;;13.20;7.70;;;;;;;;;;6215299;23;20602;-92
2022/05/14 02:31:48;;;;;;;16.60;8.75;;;;;;;;;;6215860;23;20264;-91
2022/05/14 02:34:53;;;;;;;15.32;8.73;;;;;;;;;;6215097;23;20217;-91
2022/05/14 02:37:59;;;;;;;17.63;8.93;;;;;;;;;;6231857;23;20242;-90
2022/05/14 02:41:06;;;;;;;19.42;9.68;;;;;;;;;;6233917;23;20171;-91
2022/05/14 02:44:12;;;;;;;17.60;9.60;;;;;;;;;;6234102;23;20182;-92
2022/05/14 02:47:18;;;;;;;16.25;9.55;;;;;;;;;;6218673;23;20155;-90
2022/05/14 02:50:24;;;;;;;20.13;10.02;;;;;;;;;;6234585;23;20191;-91
2022/05/14 02:53:30;;;;;;;17.75;10.15;;;;;;;;;;6217185;23;20218;-91
2022/05/14 02:56:36;;;;;;;17.75;9.40;;;;;;;;;;6217435;23;20211;-91
2022/05/14 02:59:45;;;;;;;29.92;10.75;;;;;;;;;;6234944;23;20171;-91
2022/05/14 03:02:51;;;;;;;18.65;9.50;;;;;;;;;;6215985;23;20171;-91
2022/05/14 03:05:57;;;;;;;16.42;9.45;;;;;;;;;;6217749;23;20195;-92
2022/05/14 03:09:02;;;;;;;20.05;9.55;;;;;;;;;;6234850;23;20212;-92
2022/05/14 03:12:10;;;;;;;19.80;7.88;;;;;;;;;;6217455;23;20174;-92
2022/05/14 03:15:17;;;;;;;16.10;8.32;;;;;;;;;;6234889;23;20167;-91
2022/05/14 03:18:22;;;;;;;13.98;8.63;;;;;;;;;;6217351;23;20146;-90
2022/05/14 03:21:27;;;;;;;16.83;8.98;;;;;;;;;;6218109;23;20151;-91
2022/05/14 03:24:33;;;;;;;18.58;9.52;;;;;;;;;;6233919;23;20162;-92
2022/05/14 03:27:38;;;;;;;19.13;9.52;;;;;;;;;;6232487;23;20158;-92
2022/05/14 03:30:46;;;;;;;21.23;8.65;;;;;;;;;;6233553;23;20151;-92
2022/05/14 03:33:51;;;;;;;14.52;8.63;;;;;;;;;;6233216;23;20155;-91
2022/05/14 03:36:56;;;;;;;16.35;8.48;;;;;;;;;;6231971;23;20215;-92
2022/05/14 03:40:01;;;;;;;16.75;9.00;;;;;;;;;;6234076;23;20207;-93
2022/05/14 03:43:07;;;;;;;15.82;8.85;;;;;;;;;;6235018;23;20186;-92
2022/05/14 03:46:15;;;;;;;29.08;8.40;;;;;;;;;;6217779;23;20761;-92
2022/05/14 03:49:21;;;;;;;24.55;9.60;;;;;;;;;;6232889;23;20183;-91
2022/05/14 03:52:27;;;;;;;17.95;9.50;;;;;;;;;;6233850;23;20183;-92
2022/05/14 03:55:33;;;;;;;14.10;7.38;;;;;;;;;;6233599;23;20167;-92
2022/05/14 03:58:39;;;;;;;14.50;8.20;;;;;;;;;;6217016;23;20190;-92
2022/05/14 04:02:11;;;;;;;13.07;7.05;;;;;;;;;;6234450;23;20194;-92
2022/05/14 04:05:22;;;;;;;13.35;7.75;;;;;;;;;;6235035;23;20159;-91
2022/05/14 04:08:28;;;;;;;12.88;7.82;;;;;;;;;;6234870;23;20167;-91
2022/05/14 04:11:33;;;;;;;16.38;8.05;;;;;;;;;;6234134;23;20187;-92
2022/05/14 04:14:38;;;;;;;33.13;8.70;;;;;;;;;;6235987;23;20207;-92
2022/05/14 04:17:44;;;;;;;34.15;9.07;;;;;;;;;;6217539;23;20159;-91
2022/05/14 04:20:53;;;;;;;12.68;8.00;;;;;;;;;;6234660;23;20171;-92
2022/05/14 04:23:58;;;;;;;33.58;8.70;;;;;;;;;;6233153;23;20191;-92
2022/05/14 04:27:03;;;;;;;12.65;8.18;;;;;;;;;;6232561;23;20150;-91
2022/05/14 04:30:09;;;;;;;17.05;8.90;;;;;;;;;;6215552;23;20505;-92
2022/05/14 04:33:16;;;;;;;16.42;7.88;;;;;;;;;;6232109;23;20198;-91
2022/05/14 04:36:23;;;;;;;15.05;7.95;;;;;;;;;;6230484;23;20164;-92
2022/05/14 04:39:32;;;;;;;24.92;9.45;;;;;;;;;;6231296;23;20199;-92
2022/05/14 04:42:39;;;;;;;19.20;7.95;;;;;;;;;;6213353;23;20155;-91
2022/05/14 04:45:45;;;;;;;13.77;7.50;;;;;;;;;;6230487;23;20171;-94
2022/05/14 04:48:52;;;;;;;11.48;7.10;;;;;;;;;;6230024;23;20218;-91
2022/05/14 04:51:58;;;;;;;29.40;8.18;;;;;;;;;;6229644;23;20214;-91
2022/05/14 04:55:05;;;;;;;23.30;8.45;;;;;;;;;;6229814;23;20630;-91
2022/05/14 04:58:10;;;;;;;16.77;7.82;;;;;;;;;;6229906;23;20251;-90
2022/05/14 05:01:16;;;;;;;14.10;7.82;;;;;;;;;;6231171;22;20200;-91
2022/05/14 05:04:20;;;;;;;23.08;8.35;;;;;;;;;;6230412;23;20614;-93
2022/05/14 05:07:27;;;;;;;14.27;8.00;;;;;;;;;;6229319;23;20147;-92
2022/05/14 05:10:34;;;;;;;12.85;7.25;;;;;;;;;;6232593;23;20174;-92
2022/05/14 05:13:40;;;;;;;12.35;6.80;;;;;;;;;;6213606;23;20215;-91
2022/05/14 05:16:45;;;;;;;15.73;7.25;;;;;;;;;;6212546;23;20166;-92
2022/05/14 05:19:50;;;;;;;18.00;7.75;;;;;;;;;;6214140;23;20199;-91
2022/05/14 05:22:56;;;;;;;11.30;6.88;;;;;;;;;;6213565;23;20286;-91
2022/05/14 05:26:01;;;;;;;14.15;7.00;;;;;;;;;;6231496;23;20146;-91
2022/05/14 05:29:07;;;;;;;11.95;7.00;;;;;;;;;;6230607;23;20226;-92
2022/05/14 05:32:12;;;;;;;15.40;8.13;;;;;;;;;;6228899;23;20194;-92
2022/05/14 05:35:17;;;;;;;20.85;8.35;;;;;;;;;;6212863;23;20188;-92
2022/05/14 05:38:24;;;;;;;16.83;8.90;;;;;;;;;;6228989;23;20163;-92
2022/05/14 05:41:30;;;;;;;10.15;7.03;;;;;;;;;;6213118;23;20241;-91
2022/05/14 05:44:35;;;;;;;19.55;7.68;;;;;;;;;;6230759;23;20167;-91
2022/05/14 05:47:41;;;;;;;13.75;8.15;;;;;;;;;;6228199;23;20179;-92
2022/05/14 05:50:48;;;;;;;12.55;7.85;;;;;;;;;;6229840;23;20151;-92
2022/05/14 05:57:17;;;;;;;11.57;7.78;;;;;;;;;;6229337;23;20202;-92
2022/05/14 06:00:24;;;;;;;9.60;6.47;;;;;;;;;;6213244;23;20166;-91
2022/05/14 06:03:29;;;;;;;18.48;7.40;;;;;;;;;;6229730;23;20171;-90
2022/05/14 06:06:34;;;;;;;11.55;6.72;;;;;;;;;;6231088;23;20171;-92
2022/05/14 06:09:41;;;;;;;10.20;6.32;;;;;;;;;;6229204;23;20171;-92
2022/05/14 06:12:47;;;;;;;9.38;6.43;;;;;;;;;;6230047;23;20178;-91
2022/05/14 06:19:43;;;;;;;10.15;6.72;;;;;;;;;;6229199;23;20164;-92
2022/05/14 06:22:50;;;;;;;9.00;6.65;;;;;;;;;;6227105;23;20218;-91
2022/05/14 06:25:57;;;;;;;9.00;6.05;;;;;;;;;;6211488;23;20171;-91
2022/05/14 06:29:01;;;;;;;11.93;6.55;;;;;;;;;;6228577;23;20164;-92
2022/05/14 06:32:06;;;;;;;8.57;5.50;;;;;;;;;;6230639;23;20186;-91
2022/05/14 06:35:12;;;;;;;9.10;5.70;;;;;;;;;;6232393;23;20170;-90
2022/05/14 06:38:17;;;;;;;10.43;5.82;;;;;;;;;;6230857;23;20183;-90
2022/05/14 06:41:26;;;;;;;9.20;6.07;;;;;;;;;;6230967;23;20246;-91
2022/05/14 06:44:32;;;;;;;9.50;5.72;;;;;;;;;;6212796;23;20155;-92
2022/05/14 06:47:37;;;;;;;8.52;5.70;;;;;;;;;;6230503;23;20211;-91
2022/05/14 06:50:45;;;;;;;10.57;5.50;;;;;;;;;;6230486;23;20171;-92
2022/05/14 06:53:51;;;;;;;8.88;5.47;;;;;;;;;;6216983;23;20191;-90
2022/05/14 06:56:58;;;;;;;10.93;5.85;;;;;;;;;;6231579;23;20210;-91
2022/05/14 07:00:05;;;;;;;9.38;4.82;;;;;;;;;;6215354;23;20150;-92
2022/05/14 07:06:40;;;;;;;10.48;4.95;;;;;;;;;;6234740;23;20206;-94
2022/05/14 07:09:48;;;;;;;11.80;4.55;;;;;;;;;;6212898;23;20167;-91
2022/05/14 07:12:56;;;;;;;9.13;4.28;;;;;;;;;;6233396;23;20181;-91
2022/05/14 07:16:01;;;;;;;7.80;4.85;;;;;;;;;;6231948;23;20204;-92
2022/05/14 07:19:08;;;;;;;7.40;4.07;;;;;;;;;;6215624;23;20250;-90
2022/05/14 07:22:14;;;;;;;7.78;4.15;;;;;;;;;;6231952;23;20666;-93
2022/05/14 07:25:21;;;;;;;9.45;3.67;;;;;;;;;;6232864;23;20166;-90
2022/05/14 22:08:57;;;;;;;7.97;3.08;;;;;;;;;;6143911;23;20193;-90
2022/05/14 22:12:05;;;;;;;9.32;3.45;;;;;;;;;;6141936;23;20173;-90
2022/05/14 22:15:12;;;;;;;5.45;2.88;;;;;;;;;;6140918;23;20305;-92
2022/05/14 22:18:18;;;;;;;8.68;3.40;;;;;;;;;;6141805;23;20157;-91
2022/05/14 22:21:24;;;;;;;5.63;3.47;;;;;;;;;;6141924;23;20173;-91
2022/05/14 22:24:31;;;;;;;10.25;3.50;;;;;;;;;;6126743;23;20169;-91
2022/05/14 22:27:36;;;;;;;6.25;3.28;;;;;;;;;;6126472;23;20168;-92
2022/05/14 22:30:41;;;;;;;8.88;3.17;;;;;;;;;;6125121;23;20213;-90
2022/05/14 22:33:47;;;;;;;8.30;3.28;;;;;;;;;;6143227;23;20189;-92
2022/05/14 22:36:52;;;;;;;7.80;3.05;;;;;;;;;;6143535;23;20759;-91
2022/05/14 22:43:22;;;;;;;22.08;8.02;;;;;;;;;;6143660;23;20221;-93
2022/05/14 22:46:28;;;;;;;5.60;3.13;;;;;;;;;;6141539;23;20241;-91
2022/05/14 22:49:33;;;;;;;11.18;3.25;;;;;;;;;;6141922;23;20190;-91
2022/05/14 22:52:39;;;;;;;8.40;3.33;;;;;;;;;;6141447;23;20264;-91
2022/05/14 22:55:46;;;;;;;8.65;2.90;;;;;;;;;;6125282;23;20181;-91
2022/05/14 22:58:53;;;;;;;8.50;3.25;;;;;;;;;;6142810;23;20169;-91
2022/05/14 23:01:58;;;;;;;6.18;2.78;;;;;;;;;;6140098;23;20169;-91
2022/05/14 23:05:04;;;;;;;10.00;3.20;;;;;;;;;;6140344;23;20168;-89
2022/05/14 23:08:10;;;;;;;6.90;2.90;;;;;;;;;;6141051;23;20197;-92
2022/05/14 23:11:20;;;;;;;6.50;3.53;;;;;;;;;;6126409;23;20625;-91
2022/05/14 23:14:25;;;;;;;7.82;3.15;;;;;;;;;;6125731;23;20213;-92
2022/05/14 23:17:33;;;;;;;5.60;3.05;;;;;;;;;;6143772;23;20245;-92
2022/05/14 23:20:40;;;;;;;5.43;3.15;;;;;;;;;;6141409;23;20169;-91
2022/05/14 23:23:45;;;;;;;5.13;2.85;;;;;;;;;;6124370;23;20197;-91
2022/05/14 23:26:52;;;;;;;6.82;3.45;;;;;;;;;;6124644;23;20621;-88
2022/05/14 23:29:57;;;;;;;11.15;3.08;;;;;;;;;;6140738;23;20169;-91
2022/05/14 23:33:02;;;;;;;7.80;3.40;;;;;;;;;;6141078;23;20164;-92
2022/05/14 23:36:28;;;;;;;11.38;3.53;;;;;;;;;;6122544;23;20165;-91
2022/05/14 23:39:33;;;;;;;5.15;3.17;;;;;;;;;;6123330;23;20153;-91
2022/05/14 23:42:40;;;;;;;9.05;3.45;;;;;;;;;;6141087;23;20193;-89
2022/05/14 23:45:45;;;;;;;10.43;3.20;;;;;;;;;;6139484;23;20177;-90
2022/05/14 23:48:49;;;;;;;12.07;3.47;;;;;;;;;;6140036;23;20169;-90
2022/05/14 23:51:54;;;;;;;10.07;3.40;;;;;;;;;;6139642;23;20243;-91
2022/05/14 23:55:00;;;;;;;13.35;3.45;;;;;;;;;;6139827;23;20200;-91
